TimeCST,TemperatureF,Dew PointF,Humidity,Sea Level PressureIn,VisibilityMPH,Wind Direction,Wind SpeedMPH,Gust SpeedMPH,PrecipitationIn,Events,Conditions,WindDirDegrees,DateUTC
12:53 AM,35.1,26.1,70,29.91,10.0,NW,18.4,26.5,0.00,,Mostly Cloudy,310,2014-01-17 06:53:00
1:53 AM,35.1,23.0,61,29.92,10.0,West,11.5,-,N/A,,Mostly Cloudy,280,2014-01-17 07:53:00
2:53 AM,30.9,12.9,47,29.95,10.0,NW,16.1,-,0.00,,Mostly Cloudy,310,2014-01-17 08:53:00
3:53 AM,28.9,10.9,47,29.97,10.0,NW,15.0,20.7,N/A,,Clear,310,2014-01-17 09:53:00
4:53 AM,28.0,10.0,47,30.00,10.0,WNW,19.6,25.3,N/A,,Mostly Cloudy,300,2014-01-17 10:53:00
5:53 AM,26.1,5.0,41,30.04,10.0,WNW,19.6,31.1,N/A,,Mostly Cloudy,290,2014-01-17 11:53:00
6:53 AM,24.1,5.0,44,30.07,10.0,NW,16.1,-,N/A,,Mostly Cloudy,320,2014-01-17 12:53:00
7:53 AM,23.0,3.9,44,30.09,10.0,NW,11.5,20.7,N/A,,Partly Cloudy,310,2014-01-17 13:53:00
8:53 AM,24.1,5.0,44,30.11,10.0,NW,13.8,-,N/A,,Overcast,320,2014-01-17 14:53:00
9:53 AM,26.1,7.0,44,30.13,10.0,WNW,6.9,-,N/A,,Overcast,290,2014-01-17 15:53:00
10:53 AM,27.0,9.0,47,30.12,10.0,WNW,8.1,-,N/A,,Overcast,290,2014-01-17 16:53:00
11:53 AM,27.0,10.9,51,30.11,10.0,WNW,10.4,-,N/A,,Overcast,290,2014-01-17 17:53:00
12:53 PM,28.9,10.0,45,30.09,10.0,West,13.8,19.6,0.00,,Overcast,270,2014-01-17 18:53:00
1:53 PM,28.9,8.1,41,30.11,10.0,West,16.1,23.0,N/A,,Overcast,280,2014-01-17 19:53:00
2:53 PM,30.0,7.0,38,30.12,10.0,WNW,12.7,-,N/A,,Overcast,300,2014-01-17 20:53:00
3:53 PM,30.0,9.0,41,30.15,10.0,WNW,6.9,-,N/A,,Overcast,300,2014-01-17 21:53:00
4:53 PM,30.0,9.0,41,30.16,10.0,North,3.5,-,N/A,,Overcast,350,2014-01-17 22:53:00
5:53 PM,27.0,12.0,53,30.17,10.0,Calm,Calm,-,N/A,,Clear,0,2014-01-17 23:53:00
6:53 PM,26.1,12.9,58,30.18,10.0,Calm,Calm,-,N/A,,Clear,0,2014-01-18 00:53:00
7:53 PM,23.0,14.0,68,30.18,10.0,Calm,Calm,-,N/A,,Clear,0,2014-01-18 01:53:00
8:53 PM,23.0,15.1,72,30.18,10.0,Calm,Calm,-,N/A,,Clear,0,2014-01-18 02:53:00
9:53 PM,21.9,14.0,72,30.19,10.0,SSW,3.5,-,N/A,,Clear,200,2014-01-18 03:53:00
10:53 PM,21.9,14.0,72,30.19,10.0,Calm,Calm,-,N/A,,Clear,0,2014-01-18 04:53:00
11:53 PM,19.9,14.0,78,30.17,10.0,SW,3.5,-,N/A,,Clear,230,2014-01-18 05:53:00